Time;durP1;ratioP1;P1;durP2;ratioP2;P2;SDS_P1;SDS_P2;PMS_P1;PMS_P2;Temp;Humidity;BMP_temperature;BMP_pressure;BME280_temperature;BME280_humidity;BME280_pressure;Samples;Min_cycle;Max_cycle;Signal;HPM_P1;HPM_P2
2021/09/15 00:00:56;;;;;;;;;;;23.80;48.40;;;;;;8366027;28;19925;-46
2021/09/15 00:04:56;;;;;;;;;;;23.80;48.40;;;;;;8366401;28;19966;-47
2021/09/15 00:08:56;;;;;;;;;;;23.80;48.40;;;;;;8366519;28;19979;-46
2021/09/15 00:12:57;;;;;;;;;;;23.80;48.40;;;;;;8365927;28;19952;-48
2021/09/15 00:16:57;;;;;;;;;;;23.80;48.40;;;;;;8366486;28;19913;-47
2021/09/15 00:20:58;;;;;;;;;;;23.80;48.50;;;;;;8365781;28;19925;-46
2021/09/15 00:24:58;;;;;;;;;;;23.80;48.50;;;;;;8365408;28;19924;-46
2021/09/15 00:28:59;;;;;;;;;;;23.80;48.50;;;;;;8365559;28;20020;-46
2021/09/15 00:32:59;;;;;;;;;;;23.80;48.50;;;;;;8366290;28;20292;-48
2021/09/15 00:37:00;;;;;;;;;;;23.80;48.50;;;;;;8364918;28;19995;-46
2021/09/15 00:41:00;;;;;;;;;;;23.80;48.60;;;;;;8364945;28;19924;-46
2021/09/15 00:45:01;;;;;;;;;;;23.80;48.50;;;;;;8364491;28;19916;-47
2021/09/15 00:49:02;;;;;;;;;;;23.80;48.60;;;;;;8365330;28;20389;-47
2021/09/15 00:53:02;;;;;;;;;;;23.80;48.60;;;;;;8364909;28;19917;-47
2021/09/15 00:57:03;;;;;;;;;;;23.80;48.60;;;;;;8364619;28;20282;-47
2021/09/15 01:01:03;;;;;;;;;;;23.80;48.60;;;;;;8364060;28;19987;-47
2021/09/15 01:05:04;;;;;;;;;;;23.80;48.60;;;;;;8364609;28;20287;-46
2021/09/15 01:09:05;;;;;;;;;;;23.80;48.60;;;;;;8365453;28;19921;-47
2021/09/15 01:13:05;;;;;;;;;;;23.80;48.60;;;;;;8363999;28;19917;-47
2021/09/15 01:17:06;;;;;;;;;;;23.80;48.60;;;;;;8364093;28;19917;-45
2021/09/15 01:21:07;;;;;;;;;;;23.70;48.60;;;;;;8364253;28;19936;-47
2021/09/15 01:25:08;;;;;;;;;;;23.80;48.60;;;;;;8364521;28;19948;-47
2021/09/15 01:29:13;;;;;;;;;;;23.80;49.10;;;;;;8363905;28;19917;-48
2021/09/15 01:33:15;;;;;;;;;;;23.70;48.60;;;;;;8363824;28;19917;-48
2021/09/15 01:37:16;;;;;;;;;;;23.80;48.70;;;;;;8363380;28;20003;-46
2021/09/15 01:41:16;;;;;;;;;;;23.80;48.70;;;;;;8364305;28;19928;-47
2021/09/15 01:45:17;;;;;;;;;;;23.70;48.60;;;;;;8363686;28;19944;-47
2021/09/15 01:49:17;;;;;;;;;;;23.70;48.60;;;;;;8362948;28;19970;-46
2021/09/15 01:53:18;;;;;;;;;;;23.70;48.70;;;;;;8363355;28;19970;-47
2021/09/15 01:57:18;;;;;;;;;;;23.80;48.70;;;;;;8362161;28;20126;-46
2021/09/15 02:01:19;;;;;;;;;;;23.70;48.60;;;;;;8363404;28;19921;-46
2021/09/15 02:05:19;;;;;;;;;;;23.70;49.20;;;;;;8363258;28;20378;-47
2021/09/15 02:09:20;;;;;;;;;;;23.70;48.70;;;;;;8363349;28;19921;-47
2021/09/15 02:13:20;;;;;;;;;;;23.70;48.70;;;;;;8362702;28;19916;-46
2021/09/15 02:17:20;;;;;;;;;;;23.70;48.70;;;;;;8363785;28;19958;-47
2021/09/15 02:21:21;;;;;;;;;;;23.70;48.70;;;;;;8362789;28;20309;-46
2021/09/15 02:25:21;;;;;;;;;;;23.70;48.70;;;;;;8362381;28;19974;-47
2021/09/15 02:29:22;;;;;;;;;;;23.70;48.70;;;;;;8362737;28;19917;-47
2021/09/15 02:33:22;;;;;;;;;;;23.70;48.80;;;;;;8388049;28;19920;-46
2021/09/15 02:37:23;;;;;;;;;;;23.70;48.70;;;;;;8362797;28;20265;-46
2021/09/15 02:41:23;;;;;;;;;;;23.70;48.80;;;;;;8362727;28;19928;-47
2021/09/15 02:45:24;;;;;;;;;;;23.70;48.80;;;;;;8362492;28;19920;-47
2021/09/15 02:49:27;;;;;;;;;;;23.70;48.80;;;;;;8362084;28;20444;-47
2021/09/15 02:53:27;;;;;;;;;;;23.70;48.80;;;;;;8363332;28;19917;-46
2021/09/15 02:57:28;;;;;;;;;;;23.70;48.80;;;;;;8362377;28;19917;-46
2021/09/15 03:01:28;;;;;;;;;;;23.70;48.80;;;;;;8361822;28;19925;-47
2021/09/15 03:05:30;;;;;;;;;;;23.70;48.80;;;;;;8362255;28;19917;-45
2021/09/15 03:09:30;;;;;;;;;;;23.70;48.80;;;;;;8368319;28;19928;-46
2021/09/15 03:13:31;;;;;;;;;;;23.70;48.80;;;;;;8367715;28;20028;-48
2021/09/15 03:17:31;;;;;;;;;;;23.70;48.80;;;;;;8367726;28;19916;-47
2021/09/15 03:21:32;;;;;;;;;;;23.70;48.80;;;;;;8367828;28;20374;-46
2021/09/15 03:25:32;;;;;;;;;;;23.60;48.80;;;;;;8367066;28;20007;-46
2021/09/15 03:29:33;;;;;;;;;;;23.60;48.80;;;;;;8368294;28;19919;-47
2021/09/15 03:33:33;;;;;;;;;;;23.60;48.80;;;;;;8367542;28;20016;-47
2021/09/15 03:37:34;;;;;;;;;;;23.60;48.90;;;;;;8366916;28;20362;-48
2021/09/15 03:41:34;;;;;;;;;;;23.70;48.90;;;;;;8366950;28;19925;-47
2021/09/15 03:45:35;;;;;;;;;;;23.70;49.00;;;;;;8367894;28;20327;-46
2021/09/15 03:49:36;;;;;;;;;;;23.60;48.90;;;;;;8366647;28;20004;-47
2021/09/15 03:53:36;;;;;;;;;;;23.70;48.90;;;;;;8367024;28;19921;-47
2021/09/15 03:57:37;;;;;;;;;;;23.60;49.00;;;;;;8366794;28;19921;-46
2021/09/15 04:01:37;;;;;;;;;;;23.60;48.90;;;;;;8366996;28;19975;-47
2021/09/15 04:05:38;;;;;;;;;;;23.60;48.90;;;;;;8366503;28;19917;-47
2021/09/15 04:09:38;;;;;;;;;;;23.60;48.90;;;;;;8366605;28;19921;-48
2021/09/15 04:13:38;;;;;;;;;;;23.60;49.00;;;;;;8365613;28;19922;-50
2021/09/15 04:17:39;;;;;;;;;;;23.60;49.00;;;;;;8365861;28;19921;-48
2021/09/15 04:21:40;;;;;;;;;;;23.60;48.90;;;;;;8366212;28;20007;-48
2021/09/15 04:34:18;;;;;;;;;;;23.60;49.00;;;;;;8367196;28;19996;-50
2021/09/15 04:38:19;;;;;;;;;;;23.60;49.00;;;;;;8365594;28;19917;-48
2021/09/15 04:42:19;;;;;;;;;;;23.60;49.00;;;;;;8365842;28;19917;-48
2021/09/15 04:46:20;;;;;;;;;;;23.60;49.00;;;;;;8364620;28;19924;-47
2021/09/15 04:50:20;;;;;;;;;;;23.60;49.00;;;;;;8365156;28;20362;-49
2021/09/15 04:54:21;;;;;;;;;;;23.60;49.00;;;;;;8365031;28;19913;-47
2021/09/15 04:58:21;;;;;;;;;;;23.60;49.00;;;;;;8365086;28;19925;-46
2021/09/15 05:02:21;;;;;;;;;;;23.60;49.10;;;;;;8364734;28;19921;-49
2021/09/15 05:06:22;;;;;;;;;;;23.60;49.10;;;;;;8364394;28;19912;-46
2021/09/15 05:10:25;;;;;;;;;;;23.60;49.60;;;;;;8364338;28;19924;-49
2021/09/15 05:14:25;;;;;;;;;;;23.60;49.10;;;;;;8365092;28;19913;-49
2021/09/15 05:18:26;;;;;;;;;;;23.60;49.10;;;;;;8364436;28;20476;-48
2021/09/15 05:22:27;;;;;;;;;;;23.50;49.10;;;;;;8363653;28;19924;-48
2021/09/15 05:26:28;;;;;;;;;;;23.60;49.20;;;;;;8363988;28;19921;-47
2021/09/15 05:30:28;;;;;;;;;;;23.60;49.10;;;;;;8363521;28;19921;-50
2021/09/15 05:34:28;;;;;;;;;;;23.60;49.20;;;;;;8364044;28;19917;-45
2021/09/15 05:38:29;;;;;;;;;;;23.60;49.10;;;;;;8363450;28;19925;-46
2021/09/15 05:42:29;;;;;;;;;;;23.60;49.20;;;;;;8363480;28;20457;-46
2021/09/15 05:46:30;;;;;;;;;;;23.60;49.20;;;;;;8363020;28;20276;-45
2021/09/15 05:50:30;;;;;;;;;;;23.60;49.20;;;;;;8364067;28;20361;-46
2021/09/15 05:54:31;;;;;;;;;;;23.50;49.10;;;;;;8363476;28;19940;-47
2021/09/15 05:58:31;;;;;;;;;;;23.60;49.20;;;;;;8362639;28;19935;-47
2021/09/15 06:02:32;;;;;;;;;;;23.60;49.20;;;;;;8363113;28;19948;-49
2021/09/15 06:06:33;;;;;;;;;;;23.60;49.20;;;;;;8363698;28;19924;-50
2021/09/15 06:10:33;;;;;;;;;;;23.50;49.20;;;;;;8363292;28;19964;-48
2021/09/15 06:14:34;;;;;;;;;;;23.50;49.20;;;;;;8362956;28;19917;-49
2021/09/15 06:18:34;;;;;;;;;;;23.50;49.30;;;;;;8362787;28;19920;-51
2021/09/15 06:22:35;;;;;;;;;;;23.50;49.20;;;;;;8362395;28;20328;-47
2021/09/15 06:26:35;;;;;;;;;;;23.50;49.20;;;;;;8363404;28;20354;-48
2021/09/15 06:30:36;;;;;;;;;;;23.50;49.30;;;;;;8362855;28;19917;-49
2021/09/15 06:34:37;;;;;;;;;;;23.50;49.20;;;;;;8362569;28;19917;-48
2021/09/15 06:38:37;;;;;;;;;;;23.50;49.30;;;;;;8362551;28;20054;-47
2021/09/15 06:42:38;;;;;;;;;;;23.50;49.20;;;;;;8365904;28;20008;-50
2021/09/15 06:46:38;;;;;;;;;;;23.50;49.20;;;;;;8368604;28;19927;-47
2021/09/15 06:50:39;;;;;;;;;;;23.50;49.20;;;;;;8369001;28;19921;-47
2021/09/15 06:54:39;;;;;;;;;;;23.50;49.30;;;;;;8368720;28;19913;-50
2021/09/15 06:58:40;;;;;;;;;;;23.50;49.30;;;;;;8368025;28;20301;-48
2021/09/15 07:02:40;;;;;;;;;;;23.50;49.80;;;;;;8368966;28;19916;-48
2021/09/15 07:06:41;;;;;;;;;;;23.50;49.20;;;;;;8368485;28;20417;-48
2021/09/15 07:10:42;;;;;;;;;;;23.50;49.30;;;;;;8367877;28;19974;-47
2021/09/15 07:14:42;;;;;;;;;;;23.50;49.30;;;;;;8368304;28;19913;-51
2021/09/15 07:18:44;;;;;;;;;;;23.50;49.20;;;;;;8368626;28;19924;-47
2021/09/15 07:22:44;;;;;;;;;;;23.50;49.20;;;;;;8367315;28;19916;-47
2021/09/15 07:26:45;;;;;;;;;;;23.50;49.30;;;;;;8368022;28;19917;-48
2021/09/15 07:30:45;;;;;;;;;;;23.50;49.20;;;;;;8367506;28;19959;-47
2021/09/15 07:34:45;;;;;;;;;;;23.50;49.30;;;;;;8367785;28;19917;-48
2021/09/15 07:38:46;;;;;;;;;;;23.50;49.30;;;;;;8367031;28;19925;-48
2021/09/15 07:42:47;;;;;;;;;;;23.50;49.20;;;;;;8367225;28;19917;-48
2021/09/15 07:46:47;;;;;;;;;;;23.50;49.30;;;;;;8366602;28;19927;-50
2021/09/15 07:50:50;;;;;;;;;;;23.50;49.30;;;;;;8367320;28;19916;-52
2021/09/15 07:54:50;;;;;;;;;;;23.50;49.30;;;;;;8367580;28;19917;-49
2021/09/15 07:58:51;;;;;;;;;;;23.50;49.30;;;;;;8364740;28;19925;-48
2021/09/15 08:02:51;;;;;;;;;;;23.50;49.30;;;;;;8366770;28;19959;-51
2021/09/15 08:06:52;;;;;;;;;;;23.50;49.30;;;;;;8366475;28;20016;-52
2021/09/15 08:10:52;;;;;;;;;;;23.60;49.40;;;;;;8366851;28;20058;-49
2021/09/15 08:14:53;;;;;;;;;;;23.50;49.40;;;;;;8366535;28;19970;-52
2021/09/15 08:18:53;;;;;;;;;;;23.50;49.40;;;;;;8365988;28;19921;-51
2021/09/15 08:22:54;;;;;;;;;;;23.50;49.40;;;;;;8365356;28;19917;-50
2021/09/15 08:26:54;;;;;;;;;;;23.50;49.40;;;;;;8366479;28;19913;-52
2021/09/15 08:30:54;;;;;;;;;;;23.60;49.40;;;;;;8365690;28;20385;-49
2021/09/15 08:34:55;;;;;;;;;;;23.50;49.40;;;;;;8364959;28;19924;-51
2021/09/15 08:38:55;;;;;;;;;;;23.60;49.40;;;;;;8365213;28;20478;-52
2021/09/15 08:42:56;;;;;;;;;;;23.50;49.40;;;;;;8364836;28;19917;-50
2021/09/15 08:46:58;;;;;;;;;;;23.60;49.50;;;;;;8366008;28;19967;-51
2021/09/15 08:50:58;;;;;;;;;;;23.50;49.40;;;;;;8363619;28;20332;-49
2021/09/15 08:54:59;;;;;;;;;;;23.50;49.40;;;;;;8364526;28;20003;-52
2021/09/15 08:58:59;;;;;;;;;;;23.50;49.50;;;;;;8364816;28;19927;-48
2021/09/15 09:03:00;;;;;;;;;;;23.50;49.40;;;;;;8365417;28;19940;-49
2021/09/15 09:07:09;;;;;;;;;;;23.50;49.40;;;;;;8363832;28;19917;-46
2021/09/15 09:11:11;;;;;;;;;;;23.50;49.50;;;;;;8364267;28;19928;-47
2021/09/15 09:15:14;;;;;;;;;;;23.50;49.50;;;;;;8364181;28;19958;-50
2021/09/15 09:19:24;;;;;;;;;;;23.50;49.50;;;;;;8363832;28;19925;-50
2021/09/15 09:23:24;;;;;;;;;;;23.50;49.50;;;;;;8365156;28;19917;-50
2021/09/15 09:27:28;;;;;;;;;;;23.60;49.50;;;;;;8364077;28;19917;-50
2021/09/15 09:31:32;;;;;;;;;;;23.60;49.50;;;;;;8363501;28;20293;-50
2021/09/15 09:35:40;;;;;;;;;;;23.60;49.50;;;;;;8363850;28;19913;-50
2021/09/15 09:39:42;;;;;;;;;;;23.60;49.50;;;;;;8364719;28;20385;-50
2021/09/15 09:43:48;;;;;;;;;;;23.50;49.50;;;;;;8363240;28;19970;-49
2021/09/15 09:47:48;;;;;;;;;;;23.60;49.50;;;;;;8363957;28;19971;-49
2021/09/15 09:51:48;;;;;;;;;;;23.50;49.60;;;;;;8363593;28;20289;-52
2021/09/15 09:55:54;;;;;;;;;;;23.60;49.60;;;;;;8362889;28;19967;-49
2021/09/15 09:59:55;;;;;;;;;;;23.60;49.50;;;;;;8363048;28;19921;-52
2021/09/15 10:03:56;;;;;;;;;;;23.60;49.60;;;;;;8362891;28;19971;-49
2021/09/15 10:07:57;;;;;;;;;;;23.60;49.60;;;;;;8363099;28;20437;-48
2021/09/15 10:11:57;;;;;;;;;;;23.60;49.60;;;;;;8363366;28;19925;-48
2021/09/15 10:16:02;;;;;;;;;;;23.60;49.60;;;;;;8363560;28;19985;-50
2021/09/15 10:20:04;;;;;;;;;;;23.50;49.60;;;;;;8369659;28;19932;-49
2021/09/15 10:24:04;;;;;;;;;;;23.60;49.60;;;;;;8369683;28;19917;-49
2021/09/15 10:28:08;;;;;;;;;;;23.50;49.60;;;;;;8369127;28;19971;-49
2021/09/15 10:32:13;;;;;;;;;;;23.60;49.70;;;;;;8369644;28;20334;-49
2021/09/15 10:36:16;;;;;;;;;;;23.60;49.60;;;;;;8370174;28;20377;-50
2021/09/15 10:40:26;;;;;;;;;;;23.50;49.60;;;;;;8368552;28;19936;-49
2021/09/15 10:44:27;;;;;;;;;;;23.60;49.60;;;;;;8369155;28;19924;-49
2021/09/15 10:48:27;;;;;;;;;;;23.60;49.60;;;;;;8369045;28;20262;-48
2021/09/15 10:52:28;;;;;;;;;;;23.60;49.60;;;;;;8368967;28;19912;-50
2021/09/15 10:56:35;;;;;;;;;;;23.60;49.70;;;;;;8368722;28;20365;-49
2021/09/15 11:00:45;;;;;;;;;;;23.60;49.60;;;;;;8368473;28;19925;-49
2021/09/15 11:04:46;;;;;;;;;;;23.60;50.20;;;;;;8368026;28;19916;-48
2021/09/15 11:08:49;;;;;;;;;;;23.60;49.60;;;;;;8367952;28;19944;-49
2021/09/15 11:12:49;;;;;;;;;;;23.60;49.60;;;;;;8366740;28;20353;-48
2021/09/15 11:16:52;;;;;;;;;;;23.60;49.60;;;;;;8365582;28;19921;-46
2021/09/15 11:20:53;;;;;;;;;;;23.60;49.50;;;;;;8366064;28;19925;-47
2021/09/15 11:24:54;;;;;;;;;;;23.60;49.60;;;;;;8365889;28;19920;-49
2021/09/15 11:28:54;;;;;;;;;;;23.60;49.50;;;;;;8365564;28;19913;-48
2021/09/15 11:32:54;;;;;;;;;;;23.70;49.60;;;;;;8365596;28;19920;-49
2021/09/15 11:36:55;;;;;;;;;;;23.60;49.50;;;;;;8365460;28;19917;-50
2021/09/15 11:41:11;;;;;;;;;;;23.60;49.50;;;;;;8364931;28;19924;-49
2021/09/15 11:45:13;;;;;;;;;;;23.60;49.80;;;;;;8365254;28;19916;-49
2021/09/15 11:49:13;;;;;;;;;;;23.60;49.60;;;;;;8365752;28;20385;-50
2021/09/15 11:53:14;;;;;;;;;;;23.60;49.60;;;;;;8364961;28;19924;-49
2021/09/15 11:57:16;;;;;;;;;;;23.60;49.70;;;;;;8364823;28;19921;-52
2021/09/15 12:01:16;;;;;;;;;;;23.60;49.70;;;;;;8364399;28;19964;-49
2021/09/15 12:05:19;;;;;;;;;;;23.60;49.70;;;;;;8365531;28;19920;-50
2021/09/15 12:09:20;;;;;;;;;;;23.60;49.70;;;;;;8300986;28;1815273;-48
2021/09/15 12:13:31;;;;;;;;;;;23.60;49.70;;;;;;8365718;28;19916;-49
2021/09/15 12:17:31;;;;;;;;;;;23.70;49.70;;;;;;8366524;28;19971;-49
2021/09/15 12:21:32;;;;;;;;;;;23.70;49.70;;;;;;8366044;28;19932;-48
2021/09/15 12:25:33;;;;;;;;;;;23.70;49.80;;;;;;8366199;28;19958;-50
2021/09/15 12:29:33;;;;;;;;;;;23.60;49.70;;;;;;8366040;28;20267;-47
2021/09/15 12:33:38;;;;;;;;;;;23.70;49.70;;;;;;8365628;28;19951;-49
2021/09/15 12:37:39;;;;;;;;;;;23.60;49.70;;;;;;8364998;28;19921;-50
2021/09/15 12:41:56;;;;;;;;;;;23.60;49.70;;;;;;8365605;28;20274;-52
2021/09/15 12:45:59;;;;;;;;;;;23.60;49.80;;;;;;8365615;28;20373;-49
2021/09/15 12:50:22;;;;;;;;;;;23.70;49.80;;;;;;8389954;28;19921;-51
2021/09/15 12:54:23;;;;;;;;;;;23.60;49.80;;;;;;8387350;28;19920;-51
2021/09/15 12:58:25;;;;;;;;;;;23.60;49.80;;;;;;8397480;28;20422;-47
2021/09/15 13:02:30;;;;;;;;;;;23.60;49.80;;;;;;8398795;28;20336;-51
2021/09/15 13:06:30;;;;;;;;;;;23.60;49.80;;;;;;8397723;28;19927;-50
2021/09/15 13:10:32;;;;;;;;;;;23.60;49.70;;;;;;8397389;28;20303;-48
2021/09/15 13:14:32;;;;;;;;;;;23.70;49.80;;;;;;8397141;28;19913;-50
2021/09/15 13:18:33;;;;;;;;;;;23.60;49.80;;;;;;8396799;28;19951;-47
2021/09/15 13:22:33;;;;;;;;;;;23.60;49.80;;;;;;8397414;28;19978;-49
2021/09/15 13:26:34;;;;;;;;;;;23.70;49.80;;;;;;8397402;28;19924;-48
2021/09/15 13:30:35;;;;;;;;;;;23.60;49.80;;;;;;8397189;28;19913;-47
2021/09/15 13:34:36;;;;;;;;;;;23.60;49.80;;;;;;8396475;28;19916;-48
2021/09/15 13:38:36;;;;;;;;;;;23.60;49.80;;;;;;8397585;28;19978;-52
2021/09/15 13:42:37;;;;;;;;;;;23.60;49.80;;;;;;8396554;28;19917;-47
2021/09/15 13:46:37;;;;;;;;;;;23.60;49.70;;;;;;8396105;28;19917;-52
2021/09/15 13:50:38;;;;;;;;;;;23.60;49.80;;;;;;8396215;28;19983;-50
2021/09/15 13:54:42;;;;;;;;;;;23.60;49.80;;;;;;8397051;28;19924;-51
2021/09/15 13:58:43;;;;;;;;;;;23.70;49.80;;;;;;8396492;28;19931;-48
2021/09/15 14:02:43;;;;;;;;;;;23.60;49.80;;;;;;8396562;28;20297;-48
2021/09/15 14:06:44;;;;;;;;;;;23.60;49.80;;;;;;8396449;28;20377;-48
2021/09/15 14:10:44;;;;;;;;;;;23.60;49.80;;;;;;8396069;28;20373;-50
2021/09/15 14:14:45;;;;;;;;;;;23.60;49.80;;;;;;8397177;28;20385;-48
2021/09/15 14:18:45;;;;;;;;;;;23.60;49.80;;;;;;8395869;28;19924;-48
2021/09/15 14:22:46;;;;;;;;;;;23.60;50.30;;;;;;8395411;28;19921;-49
2021/09/15 14:26:46;;;;;;;;;;;23.60;49.80;;;;;;8395541;28;20007;-50
2021/09/15 14:30:47;;;;;;;;;;;23.60;49.80;;;;;;8396849;28;19912;-50
2021/09/15 14:34:47;;;;;;;;;;;23.70;49.80;;;;;;8395478;28;20339;-52
2021/09/15 14:38:48;;;;;;;;;;;23.60;49.80;;;;;;8395796;28;19935;-49
2021/09/15 14:42:48;;;;;;;;;;;23.70;49.80;;;;;;8395741;28;19924;-50
2021/09/15 14:46:48;;;;;;;;;;;23.60;49.80;;;;;;8395180;28;19940;-53
2021/09/15 14:50:49;;;;;;;;;;;23.60;49.80;;;;;;8396522;28;19917;-53
2021/09/15 14:54:49;;;;;;;;;;;23.60;49.80;;;;;;8395598;28;20395;-52
2021/09/15 14:58:50;;;;;;;;;;;23.60;49.80;;;;;;8395111;28;19970;-52
2021/09/15 15:02:50;;;;;;;;;;;23.60;49.70;;;;;;8396737;28;20357;-51
2021/09/15 15:06:51;;;;;;;;;;;23.60;49.70;;;;;;8402301;28;19913;-50
2021/09/15 15:10:51;;;;;;;;;;;23.60;49.70;;;;;;8401142;28;19956;-50
2021/09/15 15:14:52;;;;;;;;;;;23.60;49.70;;;;;;8401688;28;19924;-48
2021/09/15 15:18:52;;;;;;;;;;;23.60;49.70;;;;;;8395608;28;19935;-48
2021/09/15 15:22:54;;;;;;;;;;;23.70;49.80;;;;;;8397233;28;19916;-50
2021/09/15 15:26:57;;;;;;;;;;;23.70;49.80;;;;;;8393445;28;19982;-50
2021/09/15 15:30:58;;;;;;;;;;;23.70;49.90;;;;;;8393777;28;19924;-52
2021/09/15 15:34:58;;;;;;;;;;;23.70;49.90;;;;;;8385288;28;20369;-52
2021/09/15 15:38:59;;;;;;;;;;;23.60;49.90;;;;;;8393546;28;19932;-50
2021/09/15 15:42:59;;;;;;;;;;;23.70;49.90;;;;;;8397010;28;20015;-51
2021/09/15 15:47:00;;;;;;;;;;;23.70;49.90;;;;;;8395106;28;20376;-49
2021/09/15 15:51:00;;;;;;;;;;;23.60;49.90;;;;;;8393117;28;19920;-52
2021/09/15 15:55:01;;;;;;;;;;;23.60;49.90;;;;;;8392905;28;19920;-50
2021/09/15 15:59:01;;;;;;;;;;;23.70;50.00;;;;;;8400571;28;19931;-51
2021/09/15 16:03:02;;;;;;;;;;;23.70;50.00;;;;;;8369416;28;19917;-48
2021/09/15 16:07:03;;;;;;;;;;;23.60;50.00;;;;;;8365943;28;19913;-48
2021/09/15 16:11:03;;;;;;;;;;;23.60;49.90;;;;;;8388795;28;19920;-50
2021/09/15 16:15:05;;;;;;;;;;;23.60;49.90;;;;;;8364350;28;20358;-50
2021/09/15 16:19:05;;;;;;;;;;;23.60;49.90;;;;;;8398708;28;19931;-51
2021/09/15 16:23:06;;;;;;;;;;;23.60;49.90;;;;;;8399043;28;19952;-49
2021/09/15 16:27:06;;;;;;;;;;;23.60;50.00;;;;;;8398833;28;20356;-51
2021/09/15 16:31:07;;;;;;;;;;;23.60;49.90;;;;;;8396128;28;21362;-53
2021/09/15 16:35:08;;;;;;;;;;;23.60;49.90;;;;;;8397183;28;20015;-48
2021/09/15 16:39:08;;;;;;;;;;;23.60;50.00;;;;;;8397744;28;19947;-53
2021/09/15 16:43:08;;;;;;;;;;;23.60;49.90;;;;;;8397187;28;19921;-52
2021/09/15 16:47:09;;;;;;;;;;;23.60;50.00;;;;;;8398084;28;20007;-49
2021/09/15 16:51:10;;;;;;;;;;;23.60;50.00;;;;;;8398615;28;19966;-54
2021/09/15 16:55:11;;;;;;;;;;;23.60;50.00;;;;;;8397912;28;19970;-52
2021/09/15 16:59:11;;;;;;;;;;;23.60;50.00;;;;;;8397812;28;19931;-52
2021/09/15 17:03:12;;;;;;;;;;;23.60;50.50;;;;;;8397851;28;19917;-50
2021/09/15 17:07:12;;;;;;;;;;;23.60;50.00;;;;;;8397227;28;19960;-51
2021/09/15 17:11:13;;;;;;;;;;;23.60;50.00;;;;;;8398503;28;19928;-51
2021/09/15 17:15:14;;;;;;;;;;;23.60;50.00;;;;;;8397574;28;19970;-48
2021/09/15 17:19:14;;;;;;;;;;;23.60;50.10;;;;;;8397190;28;19927;-50
2021/09/15 17:23:14;;;;;;;;;;;23.60;50.00;;;;;;8396233;28;20007;-49
2021/09/15 17:27:15;;;;;;;;;;;23.60;50.00;;;;;;8397619;28;20288;-50
2021/09/15 17:31:15;;;;;;;;;;;23.60;50.00;;;;;;8396645;28;19930;-50
2021/09/15 17:35:16;;;;;;;;;;;23.60;50.00;;;;;;8396933;28;20385;-50
2021/09/15 17:39:16;;;;;;;;;;;23.60;50.00;;;;;;8396761;28;19978;-49
2021/09/15 17:43:17;;;;;;;;;;;23.60;50.10;;;;;;8397020;28;19920;-50
2021/09/15 17:47:17;;;;;;;;;;;23.60;50.10;;;;;;8397116;28;19922;-49
2021/09/15 17:51:18;;;;;;;;;;;23.60;50.10;;;;;;8396497;28;19923;-48
2021/09/15 17:55:19;;;;;;;;;;;23.60;50.10;;;;;;8396086;28;19920;-51
2021/09/15 17:59:19;;;;;;;;;;;23.60;50.10;;;;;;8396437;28;19944;-50
2021/09/15 18:03:20;;;;;;;;;;;23.60;50.00;;;;;;8397017;28;19912;-47
2021/09/15 18:07:21;;;;;;;;;;;23.60;50.00;;;;;;8395817;28;19920;-49
2021/09/15 18:11:21;;;;;;;;;;;23.50;50.00;;;;;;8396731;28;20304;-50
2021/09/15 18:15:22;;;;;;;;;;;23.50;50.10;;;;;;8396359;28;19999;-49
2021/09/15 18:19:22;;;;;;;;;;;23.60;50.10;;;;;;8396543;28;19970;-48
2021/09/15 18:23:24;;;;;;;;;;;23.50;50.10;;;;;;8396125;28;19917;-51
2021/09/15 18:27:24;;;;;;;;;;;23.60;50.10;;;;;;8395988;28;19916;-48
2021/09/15 18:31:25;;;;;;;;;;;23.50;50.10;;;;;;8395697;28;19922;-49
2021/09/15 18:35:25;;;;;;;;;;;23.60;50.10;;;;;;8396444;28;19913;-48
2021/09/15 18:39:26;;;;;;;;;;;23.60;50.10;;;;;;8399595;28;19924;-48
2021/09/15 18:43:26;;;;;;;;;;;23.50;50.10;;;;;;8401698;28;19917;-47
2021/09/15 18:47:27;;;;;;;;;;;23.50;50.10;;;;;;8402067;28;20023;-48
2021/09/15 18:51:27;;;;;;;;;;;23.50;50.10;;;;;;8401813;28;20448;-48
2021/09/15 18:55:28;;;;;;;;;;;23.50;50.10;;;;;;8402605;28;20284;-52
2021/09/15 18:59:28;;;;;;;;;;;23.50;50.10;;;;;;8402080;28;20022;-49
2021/09/15 19:03:28;;;;;;;;;;;23.50;50.10;;;;;;8401727;28;19916;-48
2021/09/15 19:07:30;;;;;;;;;;;23.50;50.10;;;;;;8400989;28;19916;-49
2021/09/15 19:11:30;;;;;;;;;;;23.50;50.20;;;;;;8402268;28;19920;-49
2021/09/15 19:15:30;;;;;;;;;;;23.50;50.70;;;;;;8401064;28;19916;-50
2021/09/15 19:19:31;;;;;;;;;;;23.50;50.20;;;;;;8393221;28;19932;-49
2021/09/15 19:23:31;;;;;;;;;;;23.50;50.20;;;;;;8395868;28;20003;-51
2021/09/15 19:27:32;;;;;;;;;;;23.50;50.20;;;;;;8399191;28;20012;-49
2021/09/15 19:31:32;;;;;;;;;;;23.50;50.20;;;;;;8366435;28;19917;-48
2021/09/15 19:35:33;;;;;;;;;;;23.50;50.20;;;;;;8367754;28;19917;-50
2021/09/15 19:39:34;;;;;;;;;;;23.50;50.20;;;;;;8367651;28;19921;-49
2021/09/15 19:43:35;;;;;;;;;;;23.50;50.70;;;;;;8367056;28;20397;-48
2021/09/15 19:47:35;;;;;;;;;;;23.50;50.20;;;;;;8368326;28;20002;-49
2021/09/15 19:51:36;;;;;;;;;;;23.50;50.20;;;;;;8366837;28;19924;-49
2021/09/15 19:55:36;;;;;;;;;;;23.50;50.20;;;;;;8366664;28;19924;-48
2021/09/15 19:59:36;;;;;;;;;;;23.50;50.20;;;;;;8366867;28;19966;-50
2021/09/15 20:03:37;;;;;;;;;;;23.50;50.20;;;;;;8367434;28;19916;-47
2021/09/15 20:07:38;;;;;;;;;;;23.50;50.30;;;;;;8366184;28;19941;-49
2021/09/15 20:11:39;;;;;;;;;;;23.50;50.30;;;;;;8366720;28;19932;-48
2021/09/15 20:15:39;;;;;;;;;;;23.50;50.20;;;;;;8366527;28;19983;-47
2021/09/15 20:19:40;;;;;;;;;;;23.50;50.30;;;;;;8365825;28;19970;-51
2021/09/15 20:23:40;;;;;;;;;;;23.50;50.20;;;;;;8367018;28;20388;-48
2021/09/15 20:27:41;;;;;;;;;;;23.40;50.20;;;;;;8365878;28;19916;-49
2021/09/15 20:31:42;;;;;;;;;;;23.50;50.30;;;;;;8365432;28;19962;-49
2021/09/15 20:35:42;;;;;;;;;;;23.40;50.10;;;;;;8365987;28;19913;-49
2021/09/15 20:39:45;;;;;;;;;;;23.50;50.20;;;;;;8366264;28;19931;-47
2021/09/15 20:43:45;;;;;;;;;;;23.40;50.20;;;;;;8365122;28;19917;-49
2021/09/15 20:47:47;;;;;;;;;;;23.40;50.20;;;;;;8365751;28;19924;-48
2021/09/15 20:51:50;;;;;;;;;;;23.40;50.20;;;;;;8365431;28;19956;-52
2021/09/15 20:55:50;;;;;;;;;;;23.40;50.20;;;;;;8365318;28;19967;-51
2021/09/15 20:59:51;;;;;;;;;;;23.40;50.10;;;;;;8364795;28;20396;-49
2021/09/15 21:03:51;;;;;;;;;;;23.40;50.20;;;;;;8364753;28;19913;-50
2021/09/15 21:07:52;;;;;;;;;;;23.40;50.20;;;;;;8364093;28;20366;-51
2021/09/15 21:11:52;;;;;;;;;;;23.40;50.20;;;;;;8364605;28;19974;-48
2021/09/15 21:15:52;;;;;;;;;;;23.40;50.20;;;;;;8365300;28;19920;-48
2021/09/15 21:19:53;;;;;;;;;;;23.40;50.20;;;;;;8363847;28;19932;-48
2021/09/15 21:23:54;;;;;;;;;;;23.40;50.10;;;;;;8364384;28;19917;-48
2021/09/15 21:27:54;;;;;;;;;;;23.40;50.20;;;;;;8364190;28;19925;-47
2021/09/15 21:31:55;;;;;;;;;;;23.40;50.20;;;;;;8364391;28;19913;-48
2021/09/15 21:35:55;;;;;;;;;;;23.40;50.20;;;;;;8363855;28;19917;-47
2021/09/15 21:39:56;;;;;;;;;;;23.40;50.20;;;;;;8363797;28;19978;-48
2021/09/15 21:43:56;;;;;;;;;;;23.40;50.20;;;;;;8396298;28;20331;-47
2021/09/15 21:47:57;;;;;;;;;;;23.40;50.20;;;;;;8397054;28;19952;-48
2021/09/15 21:51:57;;;;;;;;;;;23.40;50.20;;;;;;8396605;28;20342;-47
2021/09/15 21:55:58;;;;;;;;;;;23.40;50.20;;;;;;8396518;28;19920;-51
2021/09/15 21:59:58;;;;;;;;;;;23.40;50.20;;;;;;8396415;28;19928;-48
2021/09/15 22:03:59;;;;;;;;;;;23.30;50.10;;;;;;8421605;28;19921;-48
2021/09/15 22:07:59;;;;;;;;;;;23.40;50.20;;;;;;8397169;28;19919;-49
2021/09/15 22:12:00;;;;;;;;;;;23.30;50.10;;;;;;8398133;28;19924;-48
2021/09/15 22:16:00;;;;;;;;;;;23.40;50.20;;;;;;8402817;28;19920;-48
2021/09/15 22:20:01;;;;;;;;;;;23.30;50.10;;;;;;8402969;28;19966;-50
2021/09/15 22:24:02;;;;;;;;;;;23.40;50.20;;;;;;8403683;28;19921;-48
2021/09/15 22:28:02;;;;;;;;;;;23.30;50.10;;;;;;8402262;28;19917;-50
2021/09/15 22:32:03;;;;;;;;;;;23.30;50.10;;;;;;8402671;28;19963;-50
2021/09/15 22:36:04;;;;;;;;;;;23.30;50.10;;;;;;8402800;28;19916;-48
2021/09/15 22:40:05;;;;;;;;;;;23.40;50.20;;;;;;8401772;28;19927;-47
2021/09/15 22:44:05;;;;;;;;;;;23.30;50.10;;;;;;8402951;28;20265;-48
2021/09/15 22:48:06;;;;;;;;;;;23.30;50.10;;;;;;8402201;28;19939;-48
2021/09/15 22:52:06;;;;;;;;;;;23.30;50.10;;;;;;8401739;28;19916;-48
2021/09/15 22:56:06;;;;;;;;;;;23.30;50.10;;;;;;8401766;28;19917;-48
2021/09/15 23:00:07;;;;;;;;;;;23.30;50.10;;;;;;8402460;28;19928;-49
2021/09/15 23:04:08;;;;;;;;;;;23.30;50.10;;;;;;8401448;28;19978;-48
2021/09/15 23:08:08;;;;;;;;;;;23.30;50.10;;;;;;8401382;28;19920;-48
2021/09/15 23:12:09;;;;;;;;;;;23.30;50.10;;;;;;8401170;28;19925;-48
2021/09/15 23:16:09;;;;;;;;;;;23.30;50.10;;;;;;8401514;28;20058;-48
2021/09/15 23:20:11;;;;;;;;;;;23.30;50.20;;;;;;8401056;28;19924;-48
2021/09/15 23:24:11;;;;;;;;;;;23.30;50.10;;;;;;8400446;28;19917;-48
2021/09/15 23:28:11;;;;;;;;;;;23.30;50.10;;;;;;8400389;28;19916;-48